sensor_id;sensor_type;location;lat;lon;timestamp;P1;durP1;ratioP1;P2;durP2;ratioP2
11531;SDS011;5822;51.000;5.874;2022-11-06T00:00:54;14.90;;;14.00;;
11531;SDS011;5822;51.000;5.874;2022-11-06T00:03:20;14.90;;;14.00;;
11531;SDS011;5822;51.000;5.874;2022-11-06T00:05:46;15.30;;;14.30;;
11531;SDS011;5822;51.000;5.874;2022-11-06T00:08:34;14.97;;;14.07;;
11531;SDS011;5822;51.000;5.874;2022-11-06T00:11:11;15.27;;;14.27;;
11531;SDS011;5822;51.000;5.874;2022-11-06T00:13:39;14.57;;;13.70;;
11531;SDS011;5822;51.000;5.874;2022-11-06T00:16:06;14.50;;;13.60;;
11531;SDS011;5822;51.000;5.874;2022-11-06T00:18:33;14.20;;;13.40;;
11531;SDS011;5822;51.000;5.874;2022-11-06T00:21:13;14.70;;;13.80;;
11531;SDS011;5822;51.000;5.874;2022-11-06T00:23:41;14.77;;;13.88;;
11531;SDS011;5822;51.000;5.874;2022-11-06T00:26:08;14.40;;;13.60;;
11531;SDS011;5822;51.000;5.874;2022-11-06T00:28:35;14.40;;;13.50;;
11531;SDS011;5822;51.000;5.874;2022-11-06T00:31:05;14.60;;;13.70;;
11531;SDS011;5822;51.000;5.874;2022-11-06T00:33:34;14.40;;;13.53;;
11531;SDS011;5822;51.000;5.874;2022-11-06T00:36:05;15.15;;;14.15;;
11531;SDS011;5822;51.000;5.874;2022-11-06T00:38:32;14.80;;;13.90;;
11531;SDS011;5822;51.000;5.874;2022-11-06T00:41:01;15.20;;;14.20;;
11531;SDS011;5822;51.000;5.874;2022-11-06T00:43:28;14.73;;;13.82;;
11531;SDS011;5822;51.000;5.874;2022-11-06T00:45:59;14.98;;;14.07;;
11531;SDS011;5822;51.000;5.874;2022-11-06T00:48:26;15.05;;;14.15;;
11531;SDS011;5822;51.000;5.874;2022-11-06T00:50:51;14.38;;;13.57;;
11531;SDS011;5822;51.000;5.874;2022-11-06T00:53:17;14.90;;;14.00;;
11531;SDS011;5822;51.000;5.874;2022-11-06T00:55:42;15.05;;;14.15;;
11531;SDS011;5822;51.000;5.874;2022-11-06T00:58:08;14.63;;;13.80;;
11531;SDS011;5822;51.000;5.874;2022-11-06T01:00:34;14.30;;;13.50;;
11531;SDS011;5822;51.000;5.874;2022-11-06T01:02:59;14.60;;;13.70;;
11531;SDS011;5822;51.000;5.874;2022-11-06T01:05:25;14.80;;;13.90;;
11531;SDS011;5822;51.000;5.874;2022-11-06T01:07:50;15.00;;;14.00;;
11531;SDS011;5822;51.000;5.874;2022-11-06T01:10:16;14.50;;;13.70;;
11531;SDS011;5822;51.000;5.874;2022-11-06T01:12:42;14.27;;;13.47;;
11531;SDS011;5822;51.000;5.874;2022-11-06T01:15:07;14.60;;;13.70;;
11531;SDS011;5822;51.000;5.874;2022-11-06T01:17:34;14.40;;;13.50;;
11531;SDS011;5822;51.000;5.874;2022-11-06T01:19:59;14.23;;;13.43;;
11531;SDS011;5822;51.000;5.874;2022-11-06T01:22:25;14.70;;;13.80;;
11531;SDS011;5822;51.000;5.874;2022-11-06T01:24:51;14.90;;;14.00;;
11531;SDS011;5822;51.000;5.874;2022-11-06T01:27:16;14.60;;;13.80;;
11531;SDS011;5822;51.000;5.874;2022-11-06T01:29:42;14.87;;;13.97;;
11531;SDS011;5822;51.000;5.874;2022-11-06T01:32:08;14.40;;;13.60;;
11531;SDS011;5822;51.000;5.874;2022-11-06T01:34:34;14.80;;;13.80;;
11531;SDS011;5822;51.000;5.874;2022-11-06T01:37:00;14.38;;;13.50;;
11531;SDS011;5822;51.000;5.874;2022-11-06T01:39:26;14.00;;;13.20;;
11531;SDS011;5822;51.000;5.874;2022-11-06T01:41:51;14.63;;;13.63;;
11531;SDS011;5822;51.000;5.874;2022-11-06T01:47:16;14.20;;;13.32;;
11531;SDS011;5822;51.000;5.874;2022-11-06T01:49:53;14.10;;;13.30;;
11531;SDS011;5822;51.000;5.874;2022-11-06T01:52:21;14.85;;;13.93;;
11531;SDS011;5822;51.000;5.874;2022-11-06T01:54:50;14.30;;;13.50;;
11531;SDS011;5822;51.000;5.874;2022-11-06T01:57:19;14.20;;;13.40;;
11531;SDS011;5822;51.000;5.874;2022-11-06T01:59:45;14.70;;;13.70;;
11531;SDS011;5822;51.000;5.874;2022-11-06T02:02:11;14.50;;;13.60;;
11531;SDS011;5822;51.000;5.874;2022-11-06T02:04:42;14.13;;;13.30;;
11531;SDS011;5822;51.000;5.874;2022-11-06T02:07:09;14.10;;;13.30;;
11531;SDS011;5822;51.000;5.874;2022-11-06T02:09:36;14.18;;;13.27;;
11531;SDS011;5822;51.000;5.874;2022-11-06T02:12:09;14.63;;;13.63;;
11531;SDS011;5822;51.000;5.874;2022-11-06T02:15:00;14.10;;;13.30;;
11531;SDS011;5822;51.000;5.874;2022-11-06T02:20:27;14.10;;;13.40;;
11531;SDS011;5822;51.000;5.874;2022-11-06T02:25:48;14.50;;;13.60;;
11531;SDS011;5822;51.000;5.874;2022-11-06T02:28:34;14.75;;;13.80;;
11531;SDS011;5822;51.000;5.874;2022-11-06T02:31:04;14.52;;;13.68;;
11531;SDS011;5822;51.000;5.874;2022-11-06T02:33:37;14.20;;;13.40;;
11531;SDS011;5822;51.000;5.874;2022-11-06T02:36:11;14.30;;;13.50;;
11531;SDS011;5822;51.000;5.874;2022-11-06T02:38:42;14.30;;;13.50;;
11531;SDS011;5822;51.000;5.874;2022-11-06T02:41:14;14.37;;;13.57;;
11531;SDS011;5822;51.000;5.874;2022-11-06T02:43:47;13.70;;;12.90;;
11531;SDS011;5822;51.000;5.874;2022-11-06T02:46:17;13.80;;;13.00;;
11531;SDS011;5822;51.000;5.874;2022-11-06T02:48:50;14.40;;;13.50;;
11531;SDS011;5822;51.000;5.874;2022-11-06T02:51:23;14.57;;;13.63;;
11531;SDS011;5822;51.000;5.874;2022-11-06T02:53:52;14.70;;;13.70;;
11531;SDS011;5822;51.000;5.874;2022-11-06T02:56:23;14.60;;;13.60;;
11531;SDS011;5822;51.000;5.874;2022-11-06T02:58:53;14.60;;;13.60;;
11531;SDS011;5822;51.000;5.874;2022-11-06T03:01:27;14.60;;;13.60;;
11531;SDS011;5822;51.000;5.874;2022-11-06T03:04:19;13.90;;;13.10;;
11531;SDS011;5822;51.000;5.874;2022-11-06T03:06:51;14.10;;;13.20;;
11531;SDS011;5822;51.000;5.874;2022-11-06T03:09:27;14.20;;;13.40;;
11531;SDS011;5822;51.000;5.874;2022-11-06T03:12:00;14.00;;;13.10;;
11531;SDS011;5822;51.000;5.874;2022-11-06T03:14:33;14.65;;;13.70;;
11531;SDS011;5822;51.000;5.874;2022-11-06T03:17:12;14.17;;;13.37;;
11531;SDS011;5822;51.000;5.874;2022-11-06T03:27:27;14.57;;;13.57;;
11531;SDS011;5822;51.000;5.874;2022-11-06T03:30:00;13.80;;;12.90;;
11531;SDS011;5822;51.000;5.874;2022-11-06T03:32:43;13.73;;;13.00;;
11531;SDS011;5822;51.000;5.874;2022-11-06T03:35:43;14.30;;;13.40;;
11531;SDS011;5822;51.000;5.874;2022-11-06T03:38:24;14.30;;;13.40;;
11531;SDS011;5822;51.000;5.874;2022-11-06T03:40:58;14.00;;;13.20;;
11531;SDS011;5822;51.000;5.874;2022-11-06T03:43:27;14.20;;;13.38;;
11531;SDS011;5822;51.000;5.874;2022-11-06T03:45:58;14.17;;;13.27;;
11531;SDS011;5822;51.000;5.874;2022-11-06T03:54:04;13.53;;;12.70;;
11531;SDS011;5822;51.000;5.874;2022-11-06T03:56:48;14.40;;;13.50;;
11531;SDS011;5822;51.000;5.874;2022-11-06T03:59:16;14.30;;;13.40;;
11531;SDS011;5822;51.000;5.874;2022-11-06T04:01:47;16.00;;;15.00;;
11531;SDS011;5822;51.000;5.874;2022-11-06T04:04:18;14.02;;;13.23;;
11531;SDS011;5822;51.000;5.874;2022-11-06T04:09:30;13.75;;;12.90;;
11531;SDS011;5822;51.000;5.874;2022-11-06T04:12:18;14.03;;;13.13;;
11531;SDS011;5822;51.000;5.874;2022-11-06T04:15:06;14.07;;;13.20;;
11531;SDS011;5822;51.000;5.874;2022-11-06T04:17:35;14.20;;;13.32;;
11531;SDS011;5822;51.000;5.874;2022-11-06T04:20:04;14.57;;;13.68;;
11531;SDS011;5822;51.000;5.874;2022-11-06T04:30:43;13.88;;;13.07;;
11531;SDS011;5822;51.000;5.874;2022-11-06T04:33:33;13.95;;;13.00;;
11531;SDS011;5822;51.000;5.874;2022-11-06T04:39:05;14.23;;;13.40;;
11531;SDS011;5822;51.000;5.874;2022-11-06T04:41:47;14.40;;;13.60;;
11531;SDS011;5822;51.000;5.874;2022-11-06T04:47:14;13.90;;;13.10;;
11531;SDS011;5822;51.000;5.874;2022-11-06T04:49:44;14.35;;;13.50;;
11531;SDS011;5822;51.000;5.874;2022-11-06T04:52:14;13.80;;;12.90;;
11531;SDS011;5822;51.000;5.874;2022-11-06T04:54:43;13.90;;;13.10;;
11531;SDS011;5822;51.000;5.874;2022-11-06T04:57:10;13.85;;;13.00;;
11531;SDS011;5822;51.000;5.874;2022-11-06T04:59:35;13.70;;;12.90;;
11531;SDS011;5822;51.000;5.874;2022-11-06T05:02:02;17.98;;;16.88;;
11531;SDS011;5822;51.000;5.874;2022-11-06T05:04:28;19.35;;;18.30;;
11531;SDS011;5822;51.000;5.874;2022-11-06T05:06:53;26.38;;;25.00;;
11531;SDS011;5822;51.000;5.874;2022-11-06T05:09:19;28.15;;;26.75;;
11531;SDS011;5822;51.000;5.874;2022-11-06T05:11:45;17.30;;;16.30;;
11531;SDS011;5822;51.000;5.874;2022-11-06T05:14:10;17.00;;;16.00;;
11531;SDS011;5822;51.000;5.874;2022-11-06T05:16:36;17.30;;;16.30;;
11531;SDS011;5822;51.000;5.874;2022-11-06T05:19:02;21.23;;;20.13;;
11531;SDS011;5822;51.000;5.874;2022-11-06T05:21:27;26.33;;;25.02;;
11531;SDS011;5822;51.000;5.874;2022-11-06T05:24:11;18.10;;;17.00;;
11531;SDS011;5822;51.000;5.874;2022-11-06T05:26:37;18.33;;;17.30;;
11531;SDS011;5822;51.000;5.874;2022-11-06T05:29:03;17.60;;;16.70;;
11531;SDS011;5822;51.000;5.874;2022-11-06T05:31:28;23.15;;;22.05;;
11531;SDS011;5822;51.000;5.874;2022-11-06T05:33:54;26.17;;;24.88;;
11531;SDS011;5822;51.000;5.874;2022-11-06T05:36:20;26.87;;;25.57;;
11531;SDS011;5822;51.000;5.874;2022-11-06T05:38:45;17.30;;;16.40;;
11531;SDS011;5822;51.000;5.874;2022-11-06T05:41:11;17.57;;;16.50;;
11531;SDS011;5822;51.000;5.874;2022-11-06T05:43:36;17.40;;;16.40;;
11531;SDS011;5822;51.000;5.874;2022-11-06T05:46:02;26.27;;;24.98;;
11531;SDS011;5822;51.000;5.874;2022-11-06T05:48:28;27.38;;;26.08;;
11531;SDS011;5822;51.000;5.874;2022-11-06T05:50:58;17.83;;;16.83;;
11531;SDS011;5822;51.000;5.874;2022-11-06T05:53:25;17.52;;;16.42;;
11531;SDS011;5822;51.000;5.874;2022-11-06T05:55:50;17.33;;;16.43;;
11531;SDS011;5822;51.000;5.874;2022-11-06T05:58:16;17.25;;;16.35;;
11531;SDS011;5822;51.000;5.874;2022-11-06T06:00:41;26.05;;;24.75;;
11531;SDS011;5822;51.000;5.874;2022-11-06T06:03:08;26.30;;;25.00;;
11531;SDS011;5822;51.000;5.874;2022-11-06T06:05:33;17.90;;;16.80;;
11531;SDS011;5822;51.000;5.874;2022-11-06T06:07:59;17.40;;;16.50;;
11531;SDS011;5822;51.000;5.874;2022-11-06T06:10:24;17.52;;;16.52;;
11531;SDS011;5822;51.000;5.874;2022-11-06T06:12:50;21.63;;;20.43;;
11531;SDS011;5822;51.000;5.874;2022-11-06T06:15:16;26.07;;;24.77;;
11531;SDS011;5822;51.000;5.874;2022-11-06T06:17:42;27.92;;;26.63;;
11531;SDS011;5822;51.000;5.874;2022-11-06T06:20:09;17.27;;;16.27;;
11531;SDS011;5822;51.000;5.874;2022-11-06T06:22:35;16.40;;;15.50;;
11531;SDS011;5822;51.000;5.874;2022-11-06T06:25:01;15.97;;;15.10;;
11531;SDS011;5822;51.000;5.874;2022-11-06T06:27:26;22.30;;;21.10;;
11531;SDS011;5822;51.000;5.874;2022-11-06T06:29:52;26.60;;;25.20;;
11531;SDS011;5822;51.000;5.874;2022-11-06T06:32:18;28.02;;;26.70;;
11531;SDS011;5822;51.000;5.874;2022-11-06T06:34:44;16.90;;;16.00;;
11531;SDS011;5822;51.000;5.874;2022-11-06T06:37:09;17.70;;;16.70;;
11531;SDS011;5822;51.000;5.874;2022-11-06T06:39:35;17.75;;;16.75;;
11531;SDS011;5822;51.000;5.874;2022-11-06T06:42:01;24.95;;;23.75;;
11531;SDS011;5822;51.000;5.874;2022-11-06T06:44:26;26.47;;;25.17;;
11531;SDS011;5822;51.000;5.874;2022-11-06T06:46:52;17.17;;;16.10;;
11531;SDS011;5822;51.000;5.874;2022-11-06T06:49:18;18.30;;;17.20;;
11531;SDS011;5822;51.000;5.874;2022-11-06T06:51:43;17.47;;;16.47;;
11531;SDS011;5822;51.000;5.874;2022-11-06T06:54:11;19.63;;;18.42;;
11531;SDS011;5822;51.000;5.874;2022-11-06T06:56:36;26.05;;;24.65;;
11531;SDS011;5822;51.000;5.874;2022-11-06T06:59:02;25.75;;;24.35;;
11531;SDS011;5822;51.000;5.874;2022-11-06T07:01:28;16.87;;;15.87;;
11531;SDS011;5822;51.000;5.874;2022-11-06T07:03:53;17.10;;;16.10;;
11531;SDS011;5822;51.000;5.874;2022-11-06T07:06:19;16.80;;;15.90;;
11531;SDS011;5822;51.000;5.874;2022-11-06T07:08:44;22.10;;;20.92;;
11531;SDS011;5822;51.000;5.874;2022-11-06T07:11:10;26.92;;;25.45;;
11531;SDS011;5822;51.000;5.874;2022-11-06T07:13:36;17.50;;;16.50;;
11531;SDS011;5822;51.000;5.874;2022-11-06T07:16:03;18.20;;;17.10;;
11531;SDS011;5822;51.000;5.874;2022-11-06T07:18:30;17.25;;;16.25;;
11531;SDS011;5822;51.000;5.874;2022-11-06T07:20:55;21.40;;;20.30;;
11531;SDS011;5822;51.000;5.874;2022-11-06T07:23:21;26.63;;;25.23;;
11531;SDS011;5822;51.000;5.874;2022-11-06T07:25:50;27.33;;;25.92;;
11531;SDS011;5822;51.000;5.874;2022-11-06T07:28:18;17.25;;;16.25;;
11531;SDS011;5822;51.000;5.874;2022-11-06T07:30:44;17.50;;;16.50;;
11531;SDS011;5822;51.000;5.874;2022-11-06T07:33:10;17.43;;;16.43;;
11531;SDS011;5822;51.000;5.874;2022-11-06T07:35:35;22.97;;;21.77;;
11531;SDS011;5822;51.000;5.874;2022-11-06T07:38:02;26.83;;;25.43;;
11531;SDS011;5822;51.000;5.874;2022-11-06T07:40:30;22.13;;;21.02;;
11531;SDS011;5822;51.000;5.874;2022-11-06T07:43:01;16.90;;;15.90;;
11531;SDS011;5822;51.000;5.874;2022-11-06T07:45:30;17.30;;;16.30;;
11531;SDS011;5822;51.000;5.874;2022-11-06T07:47:56;18.48;;;17.48;;
11531;SDS011;5822;51.000;5.874;2022-11-06T07:50:21;26.55;;;25.15;;
11531;SDS011;5822;51.000;5.874;2022-11-06T07:52:47;17.67;;;16.58;;
11531;SDS011;5822;51.000;5.874;2022-11-06T07:55:13;17.10;;;16.20;;
11531;SDS011;5822;51.000;5.874;2022-11-06T07:57:38;17.53;;;16.53;;
11531;SDS011;5822;51.000;5.874;2022-11-06T08:00:04;19.30;;;18.20;;
11531;SDS011;5822;51.000;5.874;2022-11-06T08:02:31;25.80;;;24.40;;
11531;SDS011;5822;51.000;5.874;2022-11-06T08:04:56;25.67;;;24.48;;
11531;SDS011;5822;51.000;5.874;2022-11-06T08:07:22;16.47;;;15.57;;
11531;SDS011;5822;51.000;5.874;2022-11-06T08:09:47;17.07;;;16.17;;
11531;SDS011;5822;51.000;5.874;2022-11-06T08:12:13;18.13;;;17.03;;
11531;SDS011;5822;51.000;5.874;2022-11-06T08:14:39;22.23;;;21.03;;
11531;SDS011;5822;51.000;5.874;2022-11-06T08:17:05;25.90;;;24.42;;
11531;SDS011;5822;51.000;5.874;2022-11-06T08:19:31;17.17;;;16.23;;
11531;SDS011;5822;51.000;5.874;2022-11-06T08:21:57;16.70;;;15.70;;
11531;SDS011;5822;51.000;5.874;2022-11-06T08:24:23;17.10;;;16.10;;
11531;SDS011;5822;51.000;5.874;2022-11-06T08:26:48;21.23;;;20.13;;
11531;SDS011;5822;51.000;5.874;2022-11-06T08:29:14;24.85;;;23.45;;
11531;SDS011;5822;51.000;5.874;2022-11-06T08:31:40;28.23;;;26.83;;
11531;SDS011;5822;51.000;5.874;2022-11-06T08:34:06;17.40;;;16.50;;
11531;SDS011;5822;51.000;5.874;2022-11-06T08:36:35;17.13;;;16.13;;
11531;SDS011;5822;51.000;5.874;2022-11-06T08:39:06;17.35;;;16.38;;
11531;SDS011;5822;51.000;5.874;2022-11-06T08:41:32;19.67;;;18.58;;
11531;SDS011;5822;51.000;5.874;2022-11-06T08:43:58;25.33;;;24.02;;
11531;SDS011;5822;51.000;5.874;2022-11-06T08:46:24;23.33;;;22.15;;
11531;SDS011;5822;51.000;5.874;2022-11-06T08:48:49;17.83;;;16.83;;
11531;SDS011;5822;51.000;5.874;2022-11-06T08:51:15;18.43;;;17.43;;
11531;SDS011;5822;51.000;5.874;2022-11-06T08:53:41;20.50;;;19.30;;
11531;SDS011;5822;51.000;5.874;2022-11-06T08:56:06;26.73;;;25.27;;
11531;SDS011;5822;51.000;5.874;2022-11-06T08:58:32;22.35;;;21.15;;
11531;SDS011;5822;51.000;5.874;2022-11-06T09:00:58;18.20;;;17.30;;
11531;SDS011;5822;51.000;5.874;2022-11-06T09:03:23;18.25;;;17.25;;
11531;SDS011;5822;51.000;5.874;2022-11-06T09:05:49;19.13;;;18.13;;
11531;SDS011;5822;51.000;5.874;2022-11-06T09:08:14;26.93;;;25.63;;
11531;SDS011;5822;51.000;5.874;2022-11-06T09:10:41;17.50;;;16.60;;
11531;SDS011;5822;51.000;5.874;2022-11-06T09:13:07;18.65;;;17.65;;
11531;SDS011;5822;51.000;5.874;2022-11-06T09:15:34;19.23;;;18.10;;
11531;SDS011;5822;51.000;5.874;2022-11-06T09:18:00;20.50;;;19.33;;
11531;SDS011;5822;51.000;5.874;2022-11-06T09:20:25;26.57;;;25.17;;
11531;SDS011;5822;51.000;5.874;2022-11-06T09:22:51;26.80;;;25.40;;
11531;SDS011;5822;51.000;5.874;2022-11-06T09:25:18;31.20;;;29.70;;
11531;SDS011;5822;51.000;5.874;2022-11-06T09:27:45;17.98;;;16.88;;
11531;SDS011;5822;51.000;5.874;2022-11-06T09:30:13;17.20;;;16.30;;
11531;SDS011;5822;51.000;5.874;2022-11-06T09:32:47;17.75;;;16.65;;
11531;SDS011;5822;51.000;5.874;2022-11-06T09:35:20;19.95;;;18.83;;
11531;SDS011;5822;51.000;5.874;2022-11-06T09:37:48;25.87;;;24.57;;
11531;SDS011;5822;51.000;5.874;2022-11-06T09:42:56;17.65;;;16.55;;
11531;SDS011;5822;51.000;5.874;2022-11-06T09:45:25;17.20;;;16.30;;
11531;SDS011;5822;51.000;5.874;2022-11-06T09:47:56;18.33;;;17.23;;
11531;SDS011;5822;51.000;5.874;2022-11-06T09:50:31;23.50;;;22.20;;
11531;SDS011;5822;51.000;5.874;2022-11-06T09:53:04;23.25;;;22.05;;
11531;SDS011;5822;51.000;5.874;2022-11-06T09:55:37;18.02;;;16.92;;
11531;SDS011;5822;51.000;5.874;2022-11-06T09:58:10;17.80;;;16.80;;
11531;SDS011;5822;51.000;5.874;2022-11-06T10:00:38;18.40;;;17.40;;
11531;SDS011;5822;51.000;5.874;2022-11-06T10:03:05;22.13;;;20.92;;
11531;SDS011;5822;51.000;5.874;2022-11-06T10:05:39;23.88;;;22.67;;
11531;SDS011;5822;51.000;5.874;2022-11-06T10:08:13;26.30;;;25.00;;
11531;SDS011;5822;51.000;5.874;2022-11-06T10:16:43;25.98;;;24.77;;
11531;SDS011;5822;51.000;5.874;2022-11-06T10:21:52;23.27;;;22.07;;
11531;SDS011;5822;51.000;5.874;2022-11-06T10:28:00;25.30;;;24.10;;
11531;SDS011;5822;51.000;5.874;2022-11-06T10:30:39;35.40;;;33.80;;
11531;SDS011;5822;51.000;5.874;2022-11-06T10:33:18;36.13;;;34.42;;
11531;SDS011;5822;51.000;5.874;2022-11-06T10:36:13;25.25;;;24.05;;
11531;SDS011;5822;51.000;5.874;2022-11-06T10:38:43;26.92;;;25.52;;
11531;SDS011;5822;51.000;5.874;2022-11-06T10:41:17;26.80;;;25.50;;
11531;SDS011;5822;51.000;5.874;2022-11-06T10:43:48;35.47;;;33.78;;
11531;SDS011;5822;51.000;5.874;2022-11-06T10:46:28;32.20;;;30.67;;
11531;SDS011;5822;51.000;5.874;2022-11-06T10:49:01;25.98;;;24.75;;
11531;SDS011;5822;51.000;5.874;2022-11-06T10:51:44;24.80;;;23.60;;
11531;SDS011;5822;51.000;5.874;2022-11-06T11:00:10;41.83;;;39.83;;
11531;SDS011;5822;51.000;5.874;2022-11-06T11:02:44;26.95;;;25.65;;
11531;SDS011;5822;51.000;5.874;2022-11-06T11:05:17;26.58;;;25.27;;
11531;SDS011;5822;51.000;5.874;2022-11-06T11:07:45;27.08;;;25.67;;
11531;SDS011;5822;51.000;5.874;2022-11-06T11:12:48;18.50;;;17.40;;
11531;SDS011;5822;51.000;5.874;2022-11-06T11:15:16;21.80;;;20.60;;
11531;SDS011;5822;51.000;5.874;2022-11-06T11:20:36;20.38;;;19.23;;
11531;SDS011;5822;51.000;5.874;2022-11-06T11:23:03;24.50;;;23.10;;
11531;SDS011;5822;51.000;5.874;2022-11-06T11:25:38;24.90;;;23.60;;
11531;SDS011;5822;51.000;5.874;2022-11-06T11:28:05;17.90;;;16.90;;
11531;SDS011;5822;51.000;5.874;2022-11-06T11:30:30;22.15;;;20.95;;
11531;SDS011;5822;51.000;5.874;2022-11-06T11:32:56;21.50;;;20.40;;
11531;SDS011;5822;51.000;5.874;2022-11-06T11:35:26;24.63;;;23.42;;
11531;SDS011;5822;51.000;5.874;2022-11-06T11:38:04;33.67;;;32.08;;
11531;SDS011;5822;51.000;5.874;2022-11-06T11:40:35;18.05;;;16.98;;
11531;SDS011;5822;51.000;5.874;2022-11-06T11:43:14;18.60;;;17.50;;
11531;SDS011;5822;51.000;5.874;2022-11-06T11:45:41;18.80;;;17.70;;
11531;SDS011;5822;51.000;5.874;2022-11-06T11:48:11;19.48;;;18.38;;
11531;SDS011;5822;51.000;5.874;2022-11-06T11:50:37;26.25;;;24.85;;
11531;SDS011;5822;51.000;5.874;2022-11-06T11:53:05;18.55;;;17.55;;
11531;SDS011;5822;51.000;5.874;2022-11-06T11:55:43;19.40;;;18.30;;
11531;SDS011;5822;51.000;5.874;2022-11-06T11:58:25;19.50;;;18.40;;
11531;SDS011;5822;51.000;5.874;2022-11-06T12:00:54;23.77;;;22.58;;
11531;SDS011;5822;51.000;5.874;2022-11-06T12:03:24;25.77;;;24.47;;
11531;SDS011;5822;51.000;5.874;2022-11-06T12:05:52;30.40;;;29.00;;
11531;SDS011;5822;51.000;5.874;2022-11-06T12:08:27;18.90;;;17.80;;
11531;SDS011;5822;51.000;5.874;2022-11-06T12:10:57;18.90;;;17.90;;
11531;SDS011;5822;51.000;5.874;2022-11-06T12:13:27;18.58;;;17.58;;
11531;SDS011;5822;51.000;5.874;2022-11-06T12:18:54;18.13;;;17.17;;
11531;SDS011;5822;51.000;5.874;2022-11-06T12:21:26;18.35;;;17.35;;
11531;SDS011;5822;51.000;5.874;2022-11-06T12:29:19;27.80;;;26.50;;
11531;SDS011;5822;51.000;5.874;2022-11-06T12:32:00;29.85;;;28.45;;
11531;SDS011;5822;51.000;5.874;2022-11-06T12:34:42;18.30;;;17.30;;
11531;SDS011;5822;51.000;5.874;2022-11-06T12:40:11;23.80;;;22.60;;
11531;SDS011;5822;51.000;5.874;2022-11-06T12:42:38;29.77;;;28.38;;
11531;SDS011;5822;51.000;5.874;2022-11-06T12:45:19;20.92;;;19.85;;
11531;SDS011;5822;51.000;5.874;2022-11-06T12:47:58;21.20;;;20.10;;
11531;SDS011;5822;51.000;5.874;2022-11-06T12:50:40;21.88;;;20.67;;
11531;SDS011;5822;51.000;5.874;2022-11-06T13:01:53;15.20;;;14.40;;
11531;SDS011;5822;51.000;5.874;2022-11-06T13:04:46;17.98;;;17.10;;
11531;SDS011;5822;51.000;5.874;2022-11-06T13:12:30;15.80;;;15.00;;
11531;SDS011;5822;51.000;5.874;2022-11-06T13:18:15;17.23;;;16.27;;
11531;SDS011;5822;51.000;5.874;2022-11-06T13:21:01;18.00;;;17.10;;
11531;SDS011;5822;51.000;5.874;2022-11-06T13:23:49;15.50;;;14.70;;
11531;SDS011;5822;51.000;5.874;2022-11-06T13:26:36;15.20;;;14.40;;
11531;SDS011;5822;51.000;5.874;2022-11-06T13:29:07;15.90;;;15.00;;
11531;SDS011;5822;51.000;5.874;2022-11-06T13:31:57;16.77;;;15.93;;
11531;SDS011;5822;51.000;5.874;2022-11-06T13:34:25;16.10;;;15.30;;
11531;SDS011;5822;51.000;5.874;2022-11-06T13:36:54;15.70;;;14.90;;
11531;SDS011;5822;51.000;5.874;2022-11-06T13:39:26;15.07;;;14.27;;
11531;SDS011;5822;51.000;5.874;2022-11-06T13:42:00;16.38;;;15.57;;
11531;SDS011;5822;51.000;5.874;2022-11-06T13:44:27;16.02;;;15.23;;
11531;SDS011;5822;51.000;5.874;2022-11-06T13:46:55;15.48;;;14.68;;
11531;SDS011;5822;51.000;5.874;2022-11-06T13:52:40;18.63;;;17.70;;
11531;SDS011;5822;51.000;5.874;2022-11-06T14:00:17;15.80;;;14.90;;
11531;SDS011;5822;51.000;5.874;2022-11-06T14:08:27;15.13;;;14.30;;
11531;SDS011;5822;51.000;5.874;2022-11-06T14:11:09;15.20;;;14.30;;
11531;SDS011;5822;51.000;5.874;2022-11-06T14:13:40;15.70;;;14.80;;
11531;SDS011;5822;51.000;5.874;2022-11-06T14:19:09;16.10;;;15.30;;
11531;SDS011;5822;51.000;5.874;2022-11-06T14:26:59;14.60;;;13.80;;
11531;SDS011;5822;51.000;5.874;2022-11-06T14:32:11;16.00;;;15.10;;
11531;SDS011;5822;51.000;5.874;2022-11-06T14:34:56;15.00;;;14.30;;
11531;SDS011;5822;51.000;5.874;2022-11-06T14:44:48;14.63;;;13.90;;
11531;SDS011;5822;51.000;5.874;2022-11-06T14:47:20;15.20;;;14.40;;
11531;SDS011;5822;51.000;5.874;2022-11-06T14:49:54;15.43;;;14.63;;
11531;SDS011;5822;51.000;5.874;2022-11-06T14:52:22;15.07;;;14.27;;
11531;SDS011;5822;51.000;5.874;2022-11-06T14:55:02;14.75;;;14.00;;
11531;SDS011;5822;51.000;5.874;2022-11-06T14:57:44;14.98;;;14.18;;
11531;SDS011;5822;51.000;5.874;2022-11-06T15:03:06;14.80;;;14.00;;
11531;SDS011;5822;51.000;5.874;2022-11-06T15:05:41;15.38;;;14.68;;
11531;SDS011;5822;51.000;5.874;2022-11-06T15:08:07;15.38;;;14.57;;
11531;SDS011;5822;51.000;5.874;2022-11-06T15:15:42;14.88;;;14.07;;
11531;SDS011;5822;51.000;5.874;2022-11-06T15:18:13;15.00;;;14.20;;
11531;SDS011;5822;51.000;5.874;2022-11-06T15:20:48;14.82;;;14.02;;
11531;SDS011;5822;51.000;5.874;2022-11-06T15:26:19;14.93;;;14.03;;
11531;SDS011;5822;51.000;5.874;2022-11-06T15:31:35;14.57;;;13.88;;
11531;SDS011;5822;51.000;5.874;2022-11-06T15:34:03;14.50;;;13.70;;
11531;SDS011;5822;51.000;5.874;2022-11-06T15:36:33;14.50;;;13.80;;
11531;SDS011;5822;51.000;5.874;2022-11-06T15:39:49;14.60;;;13.90;;
11531;SDS011;5822;51.000;5.874;2022-11-06T15:42:08;14.07;;;13.35;;
11531;SDS011;5822;51.000;5.874;2022-11-06T15:44:39;16.98;;;16.10;;
11531;SDS011;5822;51.000;5.874;2022-11-06T15:47:17;16.17;;;15.38;;
11531;SDS011;5822;51.000;5.874;2022-11-06T15:49:44;18.00;;;17.10;;
11531;SDS011;5822;51.000;5.874;2022-11-06T15:52:17;16.00;;;15.20;;
11531;SDS011;5822;51.000;5.874;2022-11-06T15:54:43;17.57;;;16.67;;
11531;SDS011;5822;51.000;5.874;2022-11-06T15:57:12;17.02;;;16.13;;
11531;SDS011;5822;51.000;5.874;2022-11-06T15:59:44;16.92;;;16.02;;
11531;SDS011;5822;51.000;5.874;2022-11-06T16:02:14;16.85;;;15.95;;
11531;SDS011;5822;51.000;5.874;2022-11-06T16:04:46;16.88;;;15.88;;
11531;SDS011;5822;51.000;5.874;2022-11-06T16:07:14;16.92;;;16.02;;
11531;SDS011;5822;51.000;5.874;2022-11-06T16:09:42;19.00;;;18.10;;
11531;SDS011;5822;51.000;5.874;2022-11-06T16:12:12;19.88;;;18.98;;
11531;SDS011;5822;51.000;5.874;2022-11-06T16:14:41;19.40;;;18.40;;
11531;SDS011;5822;51.000;5.874;2022-11-06T16:17:11;19.30;;;18.30;;
11531;SDS011;5822;51.000;5.874;2022-11-06T16:19:48;21.23;;;20.23;;
11531;SDS011;5822;51.000;5.874;2022-11-06T16:22:16;17.70;;;16.80;;
11531;SDS011;5822;51.000;5.874;2022-11-06T16:24:45;17.50;;;16.60;;
11531;SDS011;5822;51.000;5.874;2022-11-06T16:27:14;16.10;;;15.20;;
11531;SDS011;5822;51.000;5.874;2022-11-06T16:29:47;20.63;;;19.63;;
11531;SDS011;5822;51.000;5.874;2022-11-06T16:32:19;15.93;;;15.13;;
11531;SDS011;5822;51.000;5.874;2022-11-06T16:34:49;16.17;;;15.35;;
11531;SDS011;5822;51.000;5.874;2022-11-06T16:39:42;19.20;;;18.30;;
11531;SDS011;5822;51.000;5.874;2022-11-06T16:45:00;15.48;;;14.68;;
11531;SDS011;5822;51.000;5.874;2022-11-06T16:47:26;15.50;;;14.60;;
11531;SDS011;5822;51.000;5.874;2022-11-06T16:49:53;15.18;;;14.30;;
11531;SDS011;5822;51.000;5.874;2022-11-06T16:55:02;15.40;;;14.50;;
11531;SDS011;5822;51.000;5.874;2022-11-06T16:57:41;15.30;;;14.43;;
11531;SDS011;5822;51.000;5.874;2022-11-06T17:02:46;15.40;;;14.50;;
11531;SDS011;5822;51.000;5.874;2022-11-06T17:05:15;16.33;;;15.43;;
11531;SDS011;5822;51.000;5.874;2022-11-06T17:07:43;17.80;;;16.80;;
11531;SDS011;5822;51.000;5.874;2022-11-06T17:13:16;16.25;;;15.35;;
11531;SDS011;5822;51.000;5.874;2022-11-06T17:15:47;16.20;;;15.30;;
11531;SDS011;5822;51.000;5.874;2022-11-06T17:18:31;16.25;;;15.35;;
11531;SDS011;5822;51.000;5.874;2022-11-06T17:20:59;15.93;;;15.02;;
11531;SDS011;5822;51.000;5.874;2022-11-06T17:23:27;16.88;;;15.98;;